US Aviators Van Nuys Flight School Los Angeles Pilot school at Van Nuys Simulator Flight Training Profesional Pilot Instruction Learn to Fly

U.S. Aviators

Learn to fly here! (818) 779-2105

Weather at Van Nuys Airport

Observed:Mon May 25, 21:51 PDT
Age:32 min ago
Wind:ESE at 2 mph
Visibility:10 miles
Clouds:Overcast
Temperature:61°F (16°C)
Dewpoint:52°F (11°C)
Humidity:72%
Barometer:1016 hPa (29.99 in Hg)

METAR

KVNY 260451Z 12004KT 10SM OVC023 16/11 A2999 RMK AO2 SLP149 T01610111